createdAt,value
2018-07-11T00:02:09.714Z,5.13
2018-07-11T00:04:38.177Z,5.00
2018-07-11T00:07:07.540Z,7.40
2018-07-11T00:09:35.984Z,6.60
2018-07-11T00:12:04.443Z,7.97
2018-07-11T00:14:33.049Z,4.40
2018-07-11T00:17:10.477Z,5.00
2018-07-11T00:19:39.057Z,6.60
2018-07-11T00:22:07.537Z,5.50
2018-07-11T00:24:36.021Z,5.13
2018-07-11T00:27:04.511Z,5.67
2018-07-11T00:29:33.017Z,6.23
2018-07-11T00:32:01.534Z,4.70
2018-07-11T00:34:30.026Z,5.13
2018-07-11T00:36:58.450Z,5.73
2018-07-11T00:39:27.127Z,8.97
2018-07-11T00:41:55.657Z,7.10
2018-07-11T00:44:24.132Z,10.60
2018-07-11T00:46:52.600Z,9.47
2018-07-11T00:49:20.733Z,7.73
2018-07-11T00:51:49.224Z,8.70
2018-07-11T00:54:17.697Z,7.27
2018-07-11T00:56:46.154Z,8.60
2018-07-11T00:59:21.428Z,6.83
2018-07-11T01:01:49.904Z,5.43
2018-07-11T01:04:18.395Z,5.37
2018-07-11T01:06:46.990Z,5.97
2018-07-11T01:09:15.724Z,9.17
2018-07-11T01:11:44.895Z,6.47
2018-07-11T01:14:13.781Z,8.80
2018-07-11T01:16:42.293Z,8.40
2018-07-11T01:19:11.838Z,5.93
2018-07-11T01:21:40.407Z,7.53
2018-07-11T01:24:08.829Z,6.97
2018-07-11T01:26:38.499Z,10.10
2018-07-11T01:29:07.469Z,7.33
2018-07-11T01:31:35.916Z,7.00
2018-07-11T01:34:04.449Z,4.87
2018-07-11T01:36:33.161Z,5.20
2018-07-11T01:39:02.247Z,6.23
2018-07-11T01:41:30.963Z,5.17
2018-07-11T01:43:59.419Z,5.27
2018-07-11T01:46:47.451Z,7.03
2018-07-11T01:49:15.941Z,6.97
2018-07-11T01:51:56.268Z,5.20
2018-07-11T01:54:24.973Z,6.10
2018-07-11T01:56:53.641Z,6.00
2018-07-11T01:59:23.572Z,5.77
2018-07-11T02:01:52.056Z,6.13
2018-07-11T02:04:21.360Z,5.90
2018-07-11T02:06:49.884Z,5.00
2018-07-11T02:09:18.393Z,4.67
2018-07-11T02:11:46.808Z,5.67
2018-07-11T02:14:15.293Z,6.27
2018-07-11T02:16:44.064Z,6.77
2018-07-11T02:19:12.532Z,6.43
2018-07-11T02:21:41.040Z,6.43
2018-07-11T02:24:09.504Z,6.93
2018-07-11T02:26:38.037Z,7.70
2018-07-11T02:29:06.487Z,7.77
2018-07-11T02:31:34.929Z,7.17
2018-07-11T02:34:03.353Z,8.17
2018-07-11T02:36:31.761Z,7.23
2018-07-11T02:39:00.305Z,8.23
2018-07-11T02:41:28.761Z,9.77
2018-07-11T02:43:57.238Z,7.50
2018-07-11T02:46:30.969Z,8.67
2018-07-11T02:48:59.451Z,7.90
2018-07-11T02:51:27.932Z,10.87
2018-07-11T02:53:56.366Z,9.70
2018-07-11T02:56:24.912Z,10.47
2018-07-11T02:58:53.366Z,9.67
2018-07-11T03:01:21.753Z,10.67
2018-07-11T03:03:50.186Z,12.20
2018-07-11T03:06:18.590Z,12.57
2018-07-11T03:08:47.077Z,15.53
2018-07-11T03:11:15.517Z,10.33
2018-07-11T03:13:43.911Z,9.80
2018-07-11T03:16:12.334Z,12.80
2018-07-11T03:18:40.813Z,12.47
2018-07-11T03:21:09.205Z,12.07
2018-07-11T03:23:37.633Z,14.63
2018-07-11T03:26:06.137Z,13.13
2018-07-11T03:28:34.720Z,11.07
2018-07-11T03:31:03.155Z,11.40
2018-07-11T03:33:31.678Z,12.43
2018-07-11T03:36:00.187Z,14.63
2018-07-11T03:38:28.645Z,13.60
2018-07-11T03:40:57.063Z,15.90
2018-07-11T03:43:25.502Z,16.27
2018-07-11T03:45:53.925Z,17.47
2018-07-11T03:48:22.380Z,17.37
2018-07-11T03:50:50.778Z,19.70
2018-07-11T03:53:19.221Z,17.77
2018-07-11T03:55:47.616Z,23.30
2018-07-11T03:58:16.020Z,26.23
2018-07-11T04:00:44.441Z,24.60
2018-07-11T04:03:12.884Z,21.60
2018-07-11T04:05:41.369Z,21.30
2018-07-11T04:08:09.790Z,16.87
2018-07-11T04:10:38.193Z,18.70
2018-07-11T04:13:14.011Z,18.97
2018-07-11T04:15:42.932Z,18.17
2018-07-11T04:18:15.621Z,19.33
2018-07-11T04:20:44.116Z,17.63
2018-07-11T04:23:12.617Z,20.57
2018-07-11T04:25:41.076Z,21.03
2018-07-11T04:28:09.531Z,23.87
2018-07-11T04:30:37.968Z,23.97
2018-07-11T04:33:06.590Z,21.23
2018-07-11T04:35:35.054Z,17.67
2018-07-11T04:38:03.508Z,20.03
2018-07-11T04:40:32.000Z,19.50
2018-07-11T04:43:03.370Z,19.87
2018-07-11T04:45:32.581Z,18.70
2018-07-11T04:48:01.072Z,19.50
2018-07-11T04:50:29.559Z,19.53
2018-07-11T04:53:00.585Z,18.90
2018-07-11T04:55:30.034Z,17.33
2018-07-11T04:57:58.448Z,19.90
2018-07-11T05:00:26.870Z,21.47
2018-07-11T05:02:55.788Z,21.33
2018-07-11T05:05:24.247Z,20.63
2018-07-11T05:07:52.697Z,21.43
2018-07-11T05:10:21.233Z,19.77
2018-07-11T05:12:49.621Z,24.93
2018-07-11T05:15:18.019Z,22.57
2018-07-11T05:17:46.560Z,21.27
2018-07-11T05:20:15.064Z,24.50
2018-07-11T05:22:43.482Z,26.63
2018-07-11T05:25:11.916Z,22.23
2018-07-11T05:27:40.415Z,23.57
2018-07-11T05:30:08.792Z,24.23
2018-07-11T05:32:37.177Z,27.37
2018-07-11T05:35:05.967Z,25.20
2018-07-11T05:37:34.417Z,25.83
2018-07-11T05:40:02.972Z,25.60
2018-07-11T05:42:31.433Z,25.80
2018-07-11T05:44:59.836Z,25.93
2018-07-11T05:47:28.272Z,25.93
2018-07-11T05:49:56.672Z,32.10
2018-07-11T05:52:25.081Z,29.93
2018-07-11T05:54:53.513Z,39.93
2018-07-11T05:57:21.930Z,27.83
2018-07-11T05:59:50.340Z,33.47
2018-07-11T06:02:18.872Z,30.90
2018-07-11T06:04:47.423Z,29.00
2018-07-11T06:07:15.808Z,29.07
2018-07-11T06:09:44.241Z,30.27
2018-07-11T06:12:12.656Z,30.03
2018-07-11T06:14:41.187Z,29.87
2018-07-11T06:17:09.624Z,27.83
2018-07-11T06:19:38.033Z,28.83
2018-07-11T06:22:06.502Z,29.13
2018-07-11T06:24:34.895Z,32.70
2018-07-11T06:27:03.305Z,23.27
2018-07-11T06:29:32.029Z,23.57
2018-07-11T06:32:00.453Z,20.93
2018-07-11T06:34:28.869Z,22.83
2018-07-11T06:36:57.430Z,20.53
2018-07-11T06:39:26.039Z,19.13
2018-07-11T06:41:54.381Z,18.67
2018-07-11T06:44:22.795Z,16.63
2018-07-11T06:46:51.223Z,16.63
2018-07-11T06:49:19.622Z,16.37
2018-07-11T06:51:48.077Z,15.70
2018-07-11T06:54:16.540Z,20.60
2018-07-11T06:56:44.948Z,21.45
2018-07-11T06:59:13.369Z,21.07
2018-07-11T07:01:41.756Z,20.27
2018-07-11T07:04:10.184Z,23.53
2018-07-11T07:06:38.564Z,19.83
2018-07-11T07:09:07.746Z,24.67
2018-07-11T07:11:36.173Z,22.33
2018-07-11T07:14:04.588Z,21.87
2018-07-11T07:16:33.012Z,21.90
2018-07-11T07:19:01.386Z,27.67
2018-07-11T07:21:29.772Z,24.27
2018-07-11T07:23:58.212Z,23.90
2018-07-11T07:26:26.669Z,23.30
2018-07-11T07:28:55.175Z,22.40
2018-07-11T07:31:23.575Z,22.23
2018-07-11T07:33:51.972Z,21.57
2018-07-11T07:36:20.344Z,24.10
2018-07-11T07:38:48.765Z,19.60
2018-07-11T07:41:17.185Z,22.80
2018-07-11T07:43:45.695Z,19.73
2018-07-11T07:46:14.177Z,21.37
2018-07-11T07:48:42.627Z,20.00
2018-07-11T07:51:11.412Z,20.60
2018-07-11T07:53:39.953Z,20.00
2018-07-11T07:56:08.443Z,18.63
2018-07-11T07:58:36.985Z,23.57
2018-07-11T08:01:05.544Z,18.77
2018-07-11T08:03:35.731Z,20.40
2018-07-11T08:06:04.214Z,20.33
2018-07-11T08:08:32.632Z,19.67
2018-07-11T08:11:01.504Z,19.23
2018-07-11T08:13:29.989Z,22.20
2018-07-11T08:15:58.541Z,18.77
2018-07-11T08:18:26.943Z,16.60
2018-07-11T08:20:55.494Z,17.53
2018-07-11T08:23:39.784Z,17.33
2018-07-11T08:26:20.033Z,14.90
2018-07-11T08:29:30.912Z,14.70
2018-07-11T08:33:13.072Z,17.43
2018-07-11T08:35:51.244Z,17.03
2018-07-11T08:39:29.823Z,17.60
2018-07-11T08:42:09.349Z,17.57
2018-07-11T08:46:50.899Z,17.77
2018-07-11T08:51:38.822Z,16.63
2018-07-11T08:54:19.120Z,16.93
2018-07-11T08:57:04.892Z,16.13
2018-07-11T08:59:56.849Z,14.77
2018-07-11T09:03:39.445Z,14.60
2018-07-11T09:06:26.493Z,23.10
2018-07-11T09:09:07.032Z,14.40
2018-07-11T09:12:03.760Z,13.37
2018-07-11T09:14:46.498Z,11.33
2018-07-11T09:17:40.684Z,15.77
2018-07-11T09:20:22.778Z,11.53
2018-07-11T09:23:01.372Z,11.10
2018-07-11T09:25:29.829Z,9.13
2018-07-11T09:27:58.209Z,10.60
2018-07-11T09:30:26.771Z,9.70
2018-07-11T09:32:55.184Z,11.60
2018-07-11T09:35:23.637Z,9.93
2018-07-11T09:37:52.084Z,10.70
2018-07-11T09:40:20.488Z,9.23
2018-07-11T09:42:48.937Z,11.43
2018-07-11T09:45:17.396Z,10.27
2018-07-11T09:47:45.861Z,7.97
2018-07-11T09:50:14.304Z,11.00
2018-07-11T09:52:42.735Z,8.37
2018-07-11T09:55:11.184Z,9.60
2018-07-11T09:57:40.503Z,10.40
2018-07-11T10:00:13.186Z,8.87
2018-07-11T10:02:42.132Z,7.10
2018-07-11T10:05:10.641Z,7.43
2018-07-11T10:07:39.056Z,11.20
2018-07-11T10:10:07.569Z,8.87
2018-07-11T10:12:39.173Z,9.67
2018-07-11T10:15:07.537Z,9.70
2018-07-11T10:17:35.679Z,6.87
2018-07-11T10:20:04.113Z,9.63
2018-07-11T10:22:32.606Z,9.50
2018-07-11T10:25:01.039Z,8.03
2018-07-11T10:27:29.529Z,7.80
2018-07-11T10:29:57.976Z,8.93
2018-07-11T10:32:26.393Z,7.73
2018-07-11T10:34:54.820Z,8.03
2018-07-11T10:37:23.229Z,7.60
2018-07-11T10:39:51.673Z,8.50
2018-07-11T10:42:20.188Z,8.30
2018-07-11T10:44:48.987Z,7.47
2018-07-11T10:47:17.467Z,12.77
2018-07-11T10:49:46.023Z,8.63
2018-07-11T10:52:14.576Z,8.80
2018-07-11T10:54:43.220Z,7.90
2018-07-11T10:57:11.592Z,10.93
2018-07-11T10:59:40.100Z,8.60
2018-07-11T11:02:08.512Z,10.77
2018-07-11T11:04:36.952Z,11.43
2018-07-11T11:07:05.385Z,10.57
2018-07-11T11:09:33.840Z,9.27
2018-07-11T11:12:02.328Z,8.73
2018-07-11T11:14:30.845Z,8.93
2018-07-11T11:16:59.312Z,9.43
2018-07-11T11:19:28.021Z,7.73
2018-07-11T11:21:56.899Z,9.97
2018-07-11T11:24:25.353Z,10.33
2018-07-11T11:26:53.872Z,7.17
2018-07-11T11:29:22.356Z,8.10
2018-07-11T11:31:50.816Z,6.57
2018-07-11T11:34:19.364Z,6.67
2018-07-11T11:36:47.904Z,8.13
2018-07-11T11:39:16.488Z,6.27
2018-07-11T11:41:45.071Z,7.67
2018-07-11T11:44:13.485Z,9.27
2018-07-11T11:46:41.896Z,6.00
2018-07-11T11:49:10.336Z,6.60
2018-07-11T11:51:38.791Z,4.87
2018-07-11T11:54:07.204Z,6.87
2018-07-11T11:56:35.358Z,10.33
2018-07-11T11:59:03.833Z,6.97
2018-07-11T12:01:32.296Z,6.80
2018-07-11T12:04:00.748Z,4.50
2018-07-11T12:06:29.228Z,6.20
2018-07-11T12:08:57.681Z,4.80
2018-07-11T12:11:26.120Z,5.10
2018-07-11T12:13:54.536Z,5.87
2018-07-11T12:16:22.976Z,3.47
2018-07-11T12:18:51.528Z,4.77
2018-07-11T12:21:19.972Z,5.63
2018-07-11T12:23:48.712Z,8.17
2018-07-11T12:26:17.741Z,5.50
2018-07-11T12:28:46.195Z,6.07
2018-07-11T12:31:14.628Z,3.63
2018-07-11T12:33:43.035Z,5.63
2018-07-11T12:36:11.495Z,5.10
2018-07-11T12:38:40.256Z,4.67
2018-07-11T12:41:08.690Z,5.57
2018-07-11T12:43:37.144Z,4.13
2018-07-11T12:46:05.568Z,3.83
2018-07-11T12:48:40.054Z,3.83
2018-07-11T12:51:08.605Z,3.47
2018-07-11T12:53:37.063Z,3.00
2018-07-11T12:56:05.605Z,5.23
2018-07-11T12:58:34.267Z,5.57
2018-07-11T13:01:02.727Z,6.23
2018-07-11T13:03:31.217Z,3.57
2018-07-11T13:05:59.703Z,5.47
2018-07-11T13:08:28.236Z,4.97
2018-07-11T13:10:56.721Z,4.57
2018-07-11T13:13:25.140Z,3.70
2018-07-11T13:15:53.574Z,5.20
2018-07-11T13:18:22.048Z,4.13
2018-07-11T13:20:50.558Z,3.63
2018-07-11T13:23:19.055Z,4.57
2018-07-11T13:25:47.534Z,5.13
2018-07-11T13:28:15.995Z,5.23
2018-07-11T13:30:44.522Z,6.70
2018-07-11T13:33:12.991Z,4.77
2018-07-11T13:35:42.167Z,4.17
2018-07-11T13:38:12.097Z,4.87
2018-07-11T13:40:40.634Z,4.90
2018-07-11T13:43:09.748Z,5.70
2018-07-11T13:45:38.199Z,5.70
2018-07-11T13:48:07.116Z,6.00
2018-07-11T13:50:35.920Z,7.20
2018-07-11T13:53:04.340Z,4.73
2018-07-11T13:55:33.084Z,4.70
2018-07-11T13:58:02.583Z,7.90
2018-07-11T14:00:32.205Z,4.37
2018-07-11T14:03:00.782Z,4.00
2018-07-11T14:05:29.252Z,5.50
2018-07-11T14:07:57.733Z,5.43
2018-07-11T14:10:26.160Z,5.17
2018-07-11T14:12:54.706Z,8.43
2018-07-11T14:15:23.253Z,5.00
2018-07-11T14:17:51.674Z,8.30
2018-07-11T14:20:20.185Z,5.07
2018-07-11T14:22:48.898Z,8.23
2018-07-11T14:25:18.862Z,4.57
2018-07-11T14:27:48.573Z,4.33
2018-07-11T14:30:17.526Z,4.80
2018-07-11T14:32:49.848Z,5.83
2018-07-11T14:35:18.776Z,5.40
2018-07-11T14:37:48.521Z,6.33
2018-07-11T14:40:16.936Z,5.10
2018-07-11T14:42:45.812Z,6.07
2018-07-11T14:45:14.886Z,5.60
2018-07-11T14:47:48.807Z,7.30
2018-07-11T14:50:17.917Z,4.13
2018-07-11T14:52:47.266Z,5.77
2018-07-11T14:55:15.760Z,6.23
2018-07-11T14:57:44.214Z,4.90
2018-07-11T15:00:12.645Z,9.27
2018-07-11T15:02:41.132Z,6.17
2018-07-11T15:05:09.548Z,11.80
2018-07-11T15:07:38.376Z,11.47
2018-07-11T15:10:07.112Z,9.27
2018-07-11T15:12:35.792Z,7.90
2018-07-11T15:15:04.278Z,6.80
2018-07-11T15:17:33.368Z,10.83
2018-07-11T15:20:01.886Z,13.70
2018-07-11T15:22:30.416Z,11.77
2018-07-11T15:24:59.105Z,8.70
2018-07-11T15:27:27.768Z,9.87
2018-07-11T15:29:57.345Z,11.63
2018-07-11T15:32:26.253Z,15.63
2018-07-11T15:34:54.796Z,15.20
2018-07-11T15:37:23.486Z,15.80
2018-07-11T15:39:52.891Z,11.10
2018-07-11T15:42:21.408Z,11.47
2018-07-11T15:44:52.068Z,11.10
2018-07-11T15:47:22.398Z,9.43
2018-07-11T15:49:52.152Z,10.63
2018-07-11T15:52:22.629Z,11.23
2018-07-11T15:54:51.740Z,13.23
2018-07-11T15:57:30.644Z,11.83
2018-07-11T16:00:11.459Z,10.27
2018-07-11T16:02:45.181Z,9.40
2018-07-11T16:05:18.241Z,11.27
2018-07-11T16:07:48.548Z,13.93
2018-07-11T16:10:18.911Z,22.60
2018-07-11T16:12:47.666Z,16.03
2018-07-11T16:15:16.171Z,17.73
2018-07-11T16:17:44.653Z,14.17
2018-07-11T16:20:13.125Z,13.63
2018-07-11T16:22:41.563Z,14.60
2018-07-11T16:25:10.047Z,13.70
2018-07-11T16:27:38.468Z,9.53
2018-07-11T16:30:07.021Z,11.90
2018-07-11T16:32:35.567Z,10.83
2018-07-11T16:35:04.144Z,9.73
2018-07-11T16:37:32.589Z,9.43
2018-07-11T16:40:01.007Z,9.20
2018-07-11T16:42:29.267Z,8.90
2018-07-11T16:44:57.854Z,9.40
2018-07-11T16:47:27.081Z,8.27
2018-07-11T16:49:56.548Z,8.60
2018-07-11T16:52:25.117Z,9.77
2018-07-11T16:54:53.678Z,12.33
2018-07-11T16:57:30.449Z,10.10
2018-07-11T17:00:06.758Z,12.23
2018-07-11T17:02:35.348Z,9.80
2018-07-11T17:05:05.657Z,11.00
2018-07-11T17:08:12.386Z,11.07
2018-07-11T17:10:42.874Z,9.90
2018-07-11T17:13:18.797Z,11.73
2018-07-11T17:15:49.361Z,10.73
2018-07-11T17:18:28.021Z,9.47
2018-07-11T17:20:58.451Z,9.07
2018-07-11T17:23:26.937Z,13.10
2018-07-11T17:25:55.497Z,9.40
2018-07-11T17:28:24.016Z,12.83
2018-07-11T17:30:53.268Z,12.40
2018-07-11T17:33:22.345Z,12.13
2018-07-11T17:35:53.812Z,12.47
2018-07-11T17:38:24.645Z,11.80
2018-07-11T17:40:53.176Z,14.30
2018-07-11T17:43:26.919Z,12.17
2018-07-11T17:45:55.459Z,17.80
2018-07-11T17:48:36.592Z,26.90
2018-07-11T17:51:11.909Z,28.67
2018-07-11T17:53:45.552Z,27.70
2018-07-11T17:56:14.632Z,28.03
2018-07-11T17:58:52.522Z,23.20
2018-07-11T18:01:27.937Z,25.57
2018-07-11T18:04:08.569Z,24.23
2018-07-11T18:07:19.141Z,25.67
2018-07-11T18:09:57.151Z,22.97
2018-07-11T18:12:28.158Z,21.13
2018-07-11T18:15:06.025Z,18.03
2018-07-11T18:17:48.755Z,19.37
2018-07-11T18:20:30.450Z,23.97
2018-07-11T18:23:11.505Z,15.00
2018-07-11T18:25:49.350Z,16.27
2018-07-11T18:28:42.901Z,20.03
2018-07-11T18:31:21.460Z,15.80
2018-07-11T18:33:59.486Z,22.60
2018-07-11T18:38:38.675Z,18.87
2018-07-11T18:41:18.461Z,17.17
2018-07-11T18:43:58.329Z,21.20
2018-07-11T18:46:36.018Z,15.70
2018-07-11T18:50:13.810Z,14.30
2018-07-11T18:52:53.568Z,12.17
2018-07-11T18:55:38.757Z,16.67
2018-07-11T19:00:21.193Z,14.83
2018-07-11T19:02:59.352Z,15.33
2018-07-11T19:05:40.561Z,14.90
2018-07-11T19:08:16.772Z,13.27
2018-07-11T19:11:24.497Z,13.77
2018-07-11T19:14:09.041Z,13.00
2018-07-11T19:18:00.257Z,14.73
2018-07-11T19:20:39.275Z,17.60
2018-07-11T19:23:33.264Z,12.93
2018-07-11T19:26:09.625Z,13.87
2018-07-11T19:28:53.450Z,16.70
2018-07-11T19:31:47.581Z,13.83
2018-07-11T19:34:27.452Z,15.40
2018-07-11T19:37:01.818Z,15.23
2018-07-11T19:39:45.496Z,17.33
2018-07-11T19:44:29.091Z,16.23
2018-07-11T19:47:12.260Z,17.60
2018-07-11T19:49:55.568Z,17.57
2018-07-11T19:53:35.977Z,15.00
2018-07-11T19:56:16.613Z,13.20
2018-07-11T19:58:45.213Z,14.10
2018-07-11T20:01:13.928Z,13.80
2018-07-11T20:03:42.459Z,17.23
2018-07-11T20:06:11.388Z,17.17
2018-07-11T20:08:39.892Z,15.77
2018-07-11T20:11:08.457Z,15.63
2018-07-11T20:13:37.405Z,15.57
2018-07-11T20:16:06.038Z,15.83
2018-07-11T20:18:34.500Z,17.40
2018-07-11T20:21:03.001Z,15.83
2018-07-11T20:23:31.498Z,17.13
2018-07-11T20:25:59.904Z,17.23
2018-07-11T20:28:28.401Z,15.60
2018-07-11T20:30:56.892Z,18.33
2018-07-11T20:33:25.371Z,16.73
2018-07-11T20:35:53.916Z,16.30
2018-07-11T20:38:22.349Z,19.90
2018-07-11T20:40:51.120Z,15.20
2018-07-11T20:43:19.731Z,21.73
2018-07-11T20:45:48.257Z,18.10
2018-07-11T20:48:16.746Z,20.73
2018-07-11T20:50:45.230Z,16.13
2018-07-11T20:53:13.638Z,19.80
2018-07-11T20:55:42.051Z,24.20
2018-07-11T20:58:21.767Z,21.37
2018-07-11T21:02:02.280Z,20.97
2018-07-11T21:05:13.409Z,23.63
2018-07-11T21:07:53.705Z,21.53
2018-07-11T21:10:45.521Z,20.90
2018-07-11T21:13:25.093Z,25.70
2018-07-11T21:18:13.030Z,29.13
2018-07-11T21:20:41.435Z,24.80
2018-07-11T21:23:09.914Z,30.33
2018-07-11T21:25:38.466Z,26.07
2018-07-11T21:28:06.904Z,32.30
2018-07-11T21:30:35.346Z,32.40
2018-07-11T21:33:03.784Z,27.53
2018-07-11T21:35:32.222Z,27.13
2018-07-11T21:38:00.789Z,34.10
2018-07-11T21:40:30.250Z,28.93
2018-07-11T21:42:58.713Z,28.50
2018-07-11T21:45:27.125Z,29.57
2018-07-11T21:47:55.617Z,26.37
2018-07-11T21:50:24.041Z,32.87
2018-07-11T21:52:52.534Z,30.30
2018-07-11T21:55:21.185Z,34.53
2018-07-11T21:57:49.616Z,33.40
2018-07-11T22:00:34.969Z,36.00
2018-07-11T22:03:03.429Z,36.27
2018-07-11T22:05:32.464Z,31.00
2018-07-11T22:08:00.933Z,35.10
2018-07-11T22:10:29.464Z,29.57
2018-07-11T22:12:57.912Z,27.53
2018-07-11T22:15:26.584Z,34.10
2018-07-11T22:18:06.480Z,37.43
2018-07-11T22:20:34.488Z,33.67
2018-07-11T22:23:02.853Z,36.73
2018-07-11T22:25:30.160Z,31.60
2018-07-11T22:27:57.424Z,31.73
2018-07-11T22:30:25.153Z,33.70
2018-07-11T22:32:52.520Z,33.03
2018-07-11T22:35:19.815Z,30.30
2018-07-11T22:37:47.132Z,30.43
2018-07-11T22:40:14.400Z,32.53
2018-07-11T22:42:41.714Z,33.03
2018-07-11T22:45:09.029Z,32.77
2018-07-11T22:47:36.317Z,31.17
2018-07-11T22:50:03.631Z,37.17
2018-07-11T22:52:32.168Z,35.13
2018-07-11T22:54:59.463Z,29.53
2018-07-11T22:57:26.733Z,32.77
2018-07-11T22:59:54.012Z,35.20
2018-07-11T23:02:21.420Z,33.87
2018-07-11T23:04:48.706Z,34.07
2018-07-11T23:07:16.044Z,35.03
2018-07-11T23:09:43.329Z,33.80
2018-07-11T23:12:10.601Z,36.10
2018-07-11T23:14:37.896Z,33.77
2018-07-11T23:17:05.157Z,35.13
2018-07-11T23:19:32.465Z,31.27
2018-07-11T23:22:00.018Z,32.73
2018-07-11T23:24:27.297Z,31.23
2018-07-11T23:26:54.606Z,35.23
2018-07-11T23:29:21.932Z,29.57
2018-07-11T23:31:49.314Z,32.33
2018-07-11T23:34:18.407Z,40.60
2018-07-11T23:36:45.826Z,32.53
2018-07-11T23:39:13.092Z,33.67
2018-07-11T23:41:40.368Z,35.03
2018-07-11T23:44:07.651Z,37.53
2018-07-11T23:46:34.936Z,30.33
2018-07-11T23:49:02.208Z,39.80
2018-07-11T23:51:29.480Z,34.70
2018-07-11T23:53:56.764Z,27.20
2018-07-11T23:56:24.028Z,33.87
2018-07-11T23:58:51.323Z,31.17
